Time;durP1;ratioP1;P1;durP2;ratioP2;P2;SDS_P1;SDS_P2;PMS_P1;PMS_P2;Temp;Humidity;BMP_temperature;BMP_pressure;BME280_temperature;BME280_humidity;BME280_pressure;Samples;Min_cycle;Max_cycle;Signal;HPM_P1;HPM_P2
2021/11/05 00:00:43;;;;;;;1.70;1.02;;;;;;;;;;4998203;28;20029;-82
2021/11/05 00:03:09;;;;;;;1.50;1.05;;;;;;;;;;4988281;28;20730;-82
2021/11/05 00:05:36;;;;;;;2.40;1.00;;;;;;;;;;4993088;28;20022;-83
2021/11/05 00:08:07;;;;;;;1.92;1.10;;;;;;;;;;4983057;28;20033;-82
2021/11/05 00:10:34;;;;;;;1.80;0.90;;;;;;;;;;4995603;28;20030;-83
2021/11/05 00:13:01;;;;;;;1.85;1.10;;;;;;;;;;4987128;28;20041;-83
2021/11/05 00:15:28;;;;;;;2.88;1.10;;;;;;;;;;4997627;28;20038;-83
2021/11/05 00:17:54;;;;;;;1.63;1.10;;;;;;;;;;5014796;28;20061;-82
2021/11/05 00:20:21;;;;;;;2.15;1.30;;;;;;;;;;4992832;28;20552;-81
2021/11/05 00:22:47;;;;;;;2.10;0.95;;;;;;;;;;4988503;28;20073;-81
2021/11/05 00:25:14;;;;;;;2.03;1.10;;;;;;;;;;4983296;28;20034;-81
2021/11/05 00:27:41;;;;;;;2.15;1.10;;;;;;;;;;4971275;28;20030;-79
2021/11/05 00:30:08;;;;;;;1.92;1.10;;;;;;;;;;5004322;28;20061;-80
2021/11/05 00:32:35;;;;;;;1.55;1.00;;;;;;;;;;4971700;28;20069;-80
2021/11/05 00:35:01;;;;;;;1.80;1.15;;;;;;;;;;5007968;28;20057;-80
2021/11/05 00:37:28;;;;;;;1.60;1.10;;;;;;;;;;5010133;28;20050;-80
2021/11/05 00:39:54;;;;;;;2.05;1.10;;;;;;;;;;5003028;28;20115;-80
2021/11/05 00:42:20;;;;;;;3.28;1.08;;;;;;;;;;4990933;28;20140;-79
2021/11/05 00:44:47;;;;;;;1.70;1.05;;;;;;;;;;5003114;28;20084;-79
2021/11/05 00:47:15;;;;;;;2.10;1.20;;;;;;;;;;4981388;28;20054;-80
2021/11/05 00:49:42;;;;;;;1.63;1.00;;;;;;;;;;4988441;28;20123;-80
2021/11/05 00:52:08;;;;;;;2.45;1.20;;;;;;;;;;4961214;28;20066;-80
2021/11/05 00:54:34;;;;;;;1.45;0.90;;;;;;;;;;4987865;28;20080;-80
2021/11/05 00:57:01;;;;;;;2.05;1.10;;;;;;;;;;4992968;28;20054;-81
2021/11/05 00:59:27;;;;;;;2.50;1.25;;;;;;;;;;5003460;28;20054;-82
2021/11/05 01:01:54;;;;;;;1.73;1.10;;;;;;;;;;5001169;28;20057;-80
2021/11/05 01:04:20;;;;;;;2.55;1.13;;;;;;;;;;4973953;28;20124;-80
2021/11/05 01:06:47;;;;;;;1.40;0.93;;;;;;;;;;4979758;28;20148;-81
2021/11/05 01:09:13;;;;;;;2.25;1.23;;;;;;;;;;4988823;28;20089;-80
2021/11/05 01:11:40;;;;;;;1.48;0.90;;;;;;;;;;4988678;28;20701;-79
2021/11/05 01:14:06;;;;;;;1.60;1.05;;;;;;;;;;5001872;28;20058;-81
2021/11/05 01:16:32;;;;;;;2.72;1.00;;;;;;;;;;4987576;28;20038;-79
2021/11/05 01:18:59;;;;;;;1.60;0.90;;;;;;;;;;5007306;28;20062;-80
2021/11/05 01:21:25;;;;;;;2.55;1.10;;;;;;;;;;4994361;28;20057;-80
2021/11/05 01:23:52;;;;;;;2.08;1.00;;;;;;;;;;5005125;28;20077;-80
2021/11/05 01:26:18;;;;;;;2.38;0.98;;;;;;;;;;5005147;28;20430;-80
2021/11/05 01:28:45;;;;;;;1.30;1.00;;;;;;;;;;5005010;28;20114;-80
2021/11/05 01:31:11;;;;;;;2.38;0.90;;;;;;;;;;5005587;28;20485;-80
2021/11/05 01:33:38;;;;;;;2.03;1.08;;;;;;;;;;4980224;28;20102;-79
2021/11/05 01:36:04;;;;;;;2.17;1.10;;;;;;;;;;4986633;28;20061;-80
2021/11/05 01:38:31;;;;;;;1.88;1.30;;;;;;;;;;4989230;28;20069;-79
2021/11/05 01:40:57;;;;;;;1.10;0.90;;;;;;;;;;4965123;28;20050;-80
2021/11/05 01:43:24;;;;;;;2.00;1.17;;;;;;;;;;5002208;28;20069;-81
2021/11/05 01:45:51;;;;;;;1.70;1.00;;;;;;;;;;4970346;28;20069;-81
2021/11/05 01:48:18;;;;;;;1.60;1.20;;;;;;;;;;5005856;28;20062;-80
2021/11/05 01:50:44;;;;;;;2.40;1.00;;;;;;;;;;5005179;28;20069;-81
2021/11/05 01:53:11;;;;;;;1.90;1.05;;;;;;;;;;4998689;28;20062;-80
2021/11/05 01:55:38;;;;;;;1.70;0.90;;;;;;;;;;5006080;28;20062;-80
2021/11/05 01:58:05;;;;;;;1.90;1.10;;;;;;;;;;4991301;28;20054;-81
2021/11/05 02:00:32;;;;;;;1.90;1.13;;;;;;;;;;5005271;28;20037;-80
2021/11/05 02:02:59;;;;;;;1.48;0.90;;;;;;;;;;4985444;28;20759;-81
2021/11/05 02:05:26;;;;;;;1.58;1.13;;;;;;;;;;4982742;28;20061;-81
2021/11/05 02:07:53;;;;;;;2.00;0.98;;;;;;;;;;4982575;28;20033;-81
2021/11/05 02:10:21;;;;;;;1.83;1.02;;;;;;;;;;4988435;28;20053;-80
2021/11/05 02:12:48;;;;;;;2.40;1.10;;;;;;;;;;4992765;28;20075;-79
2021/11/05 02:15:14;;;;;;;1.73;1.08;;;;;;;;;;4985632;28;20057;-80
2021/11/05 02:17:42;;;;;;;1.08;0.80;;;;;;;;;;4970569;28;20768;-80
2021/11/05 02:20:09;;;;;;;1.15;0.85;;;;;;;;;;5010439;28;20072;-80
2021/11/05 02:22:36;;;;;;;2.50;1.10;;;;;;;;;;4983548;28;20069;-80
2021/11/05 02:25:03;;;;;;;1.02;0.90;;;;;;;;;;5004996;28;20066;-81
2021/11/05 02:27:30;;;;;;;1.90;0.95;;;;;;;;;;5005213;28;20064;-82
2021/11/05 02:29:57;;;;;;;1.80;0.80;;;;;;;;;;5005030;28;20069;-81
2021/11/05 02:32:24;;;;;;;3.38;1.17;;;;;;;;;;4971358;28;20066;-81
2021/11/05 02:34:51;;;;;;;1.80;1.00;;;;;;;;;;4987297;28;20054;-80
2021/11/05 02:37:23;;;;;;;2.25;1.10;;;;;;;;;;4988007;28;20068;-81
2021/11/05 02:39:50;;;;;;;2.05;1.00;;;;;;;;;;4981782;28;20061;-80
2021/11/05 02:42:16;;;;;;;2.15;1.00;;;;;;;;;;4989073;28;20058;-81
2021/11/05 02:44:43;;;;;;;1.73;1.02;;;;;;;;;;5005890;28;20120;-82
2021/11/05 02:47:28;;;;;;;1.00;0.80;;;;;;;;;;4980279;28;20050;-83
2021/11/05 02:49:57;;;;;;;2.08;0.80;;;;;;;;;;4986686;28;20053;-82
2021/11/05 02:52:24;;;;;;;1.10;0.85;;;;;;;;;;5003260;28;20054;-82
2021/11/05 02:54:53;;;;;;;1.48;0.90;;;;;;;;;;4986140;28;20061;-82
2021/11/05 02:57:20;;;;;;;1.73;1.10;;;;;;;;;;4988995;28;20045;-82
2021/11/05 02:59:46;;;;;;;1.35;0.80;;;;;;;;;;4971626;28;20593;-82
2021/11/05 03:02:12;;;;;;;2.65;1.00;;;;;;;;;;4987601;28;20057;-82
2021/11/05 03:04:39;;;;;;;1.90;0.98;;;;;;;;;;5005470;28;20065;-82
2021/11/05 03:07:07;;;;;;;1.85;1.00;;;;;;;;;;4995997;28;20047;-82
2021/11/05 03:09:38;;;;;;;1.67;0.95;;;;;;;;;;4970995;28;20038;-82
2021/11/05 03:12:05;;;;;;;6.20;1.00;;;;;;;;;;5005254;28;20068;-80
2021/11/05 03:14:31;;;;;;;1.38;0.73;;;;;;;;;;4969177;28;20061;-81
2021/11/05 03:16:58;;;;;;;1.60;0.90;;;;;;;;;;5002236;28;20339;-81
2021/11/05 03:19:25;;;;;;;1.88;0.93;;;;;;;;;;4970270;28;20438;-81
2021/11/05 03:21:51;;;;;;;1.33;0.90;;;;;;;;;;4986752;28;20062;-81
2021/11/05 03:24:18;;;;;;;1.70;1.00;;;;;;;;;;4994681;28;20066;-82
2021/11/05 03:26:45;;;;;;;1.88;1.10;;;;;;;;;;5005753;28;20073;-80
2021/11/05 03:29:13;;;;;;;1.33;0.85;;;;;;;;;;4987997;28;20064;-81
2021/11/05 03:31:39;;;;;;;1.25;0.80;;;;;;;;;;4985882;28;20112;-81
2021/11/05 03:34:06;;;;;;;2.30;0.95;;;;;;;;;;4993551;28;20068;-82
2021/11/05 03:36:32;;;;;;;1.52;0.73;;;;;;;;;;4990461;28;20505;-82
2021/11/05 03:38:59;;;;;;;1.15;0.70;;;;;;;;;;4990302;28;20347;-81
2021/11/05 03:41:26;;;;;;;1.40;0.80;;;;;;;;;;5008859;28;20462;-81
2021/11/05 03:43:52;;;;;;;1.17;0.85;;;;;;;;;;4989622;28;20077;-80
2021/11/05 03:46:19;;;;;;;1.20;0.70;;;;;;;;;;5007413;28;20143;-81
2021/11/05 03:48:45;;;;;;;1.35;0.75;;;;;;;;;;4973515;28;20062;-81
2021/11/05 03:51:12;;;;;;;1.55;0.90;;;;;;;;;;4989920;28;20555;-82
2021/11/05 03:53:39;;;;;;;1.33;0.80;;;;;;;;;;5008666;28;20090;-81
2021/11/05 03:56:05;;;;;;;1.27;0.80;;;;;;;;;;5008685;28;20131;-82
2021/11/05 03:58:32;;;;;;;1.92;1.20;;;;;;;;;;4975740;28;20064;-81
2021/11/05 04:00:58;;;;;;;1.83;0.80;;;;;;;;;;5005705;28;20783;-82
2021/11/05 04:03:25;;;;;;;2.75;0.90;;;;;;;;;;4973016;28;20077;-80
2021/11/05 04:05:51;;;;;;;1.27;0.80;;;;;;;;;;4992065;28;20061;-80
2021/11/05 04:08:18;;;;;;;3.08;0.88;;;;;;;;;;5009761;28;20061;-81
2021/11/05 04:10:46;;;;;;;1.55;0.77;;;;;;;;;;5007256;28;20520;-81
2021/11/05 04:13:13;;;;;;;0.93;0.70;;;;;;;;;;4973411;28;20038;-81
2021/11/05 04:15:40;;;;;;;0.70;0.60;;;;;;;;;;5006051;28;20068;-81
2021/11/05 04:18:07;;;;;;;1.13;0.88;;;;;;;;;;4973068;28;20065;-81
2021/11/05 04:20:34;;;;;;;1.42;0.82;;;;;;;;;;4988790;28;20520;-78
2021/11/05 04:23:04;;;;;;;1.40;0.77;;;;;;;;;;4989084;28;20489;-80
2021/11/05 04:25:30;;;;;;;1.25;0.80;;;;;;;;;;4974272;28;20123;-80
2021/11/05 04:27:57;;;;;;;1.48;0.90;;;;;;;;;;4988043;28;20056;-80
2021/11/05 04:30:23;;;;;;;1.33;0.73;;;;;;;;;;4989981;28;20058;-80
2021/11/05 04:32:49;;;;;;;1.42;0.70;;;;;;;;;;4978685;28;20058;-80
2021/11/05 04:35:16;;;;;;;1.63;0.80;;;;;;;;;;4990438;28;20481;-80
2021/11/05 04:37:42;;;;;;;2.10;0.70;;;;;;;;;;4971141;28;20061;-80
2021/11/05 04:40:09;;;;;;;1.90;0.70;;;;;;;;;;4984403;28;20065;-80
2021/11/05 04:42:35;;;;;;;2.15;0.82;;;;;;;;;;4972498;28;20081;-79
2021/11/05 04:45:02;;;;;;;2.53;0.82;;;;;;;;;;4994134;28;20061;-80
2021/11/05 04:47:29;;;;;;;1.35;0.60;;;;;;;;;;4989989;28;20069;-80
2021/11/05 04:49:55;;;;;;;1.13;0.80;;;;;;;;;;4988716;28;20058;-79
2021/11/05 04:52:21;;;;;;;1.55;0.70;;;;;;;;;;5005761;28;20049;-80
2021/11/05 04:54:48;;;;;;;1.10;0.65;;;;;;;;;;5000364;28;20065;-80
2021/11/05 04:57:14;;;;;;;1.60;0.80;;;;;;;;;;5008050;28;20037;-80
2021/11/05 04:59:41;;;;;;;1.23;0.70;;;;;;;;;;5005789;28;20065;-81
2021/11/05 05:02:07;;;;;;;0.52;0.50;;;;;;;;;;4985651;28;20482;-82
2021/11/05 05:04:33;;;;;;;1.00;0.77;;;;;;;;;;5007659;28;20074;-82
2021/11/05 05:07:00;;;;;;;1.90;0.75;;;;;;;;;;4971497;28;20067;-81
2021/11/05 05:09:26;;;;;;;2.03;0.70;;;;;;;;;;4973919;28;20123;-82
2021/11/05 05:11:53;;;;;;;2.50;0.75;;;;;;;;;;5006911;28;20088;-81
2021/11/05 05:14:22;;;;;;;0.82;0.68;;;;;;;;;;4990417;28;20053;-81
2021/11/05 05:16:48;;;;;;;1.52;0.73;;;;;;;;;;4986911;28;20156;-81
2021/11/05 05:19:15;;;;;;;1.00;0.70;;;;;;;;;;5008939;28;20046;-80
2021/11/05 05:21:41;;;;;;;0.98;0.60;;;;;;;;;;4971211;28;20026;-81
2021/11/05 05:24:14;;;;;;;1.10;0.63;;;;;;;;;;4985985;28;20089;-81
2021/11/05 05:26:41;;;;;;;1.70;0.68;;;;;;;;;;5007208;28;20073;-82
2021/11/05 05:29:08;;;;;;;1.23;0.60;;;;;;;;;;4989612;28;20065;-81
2021/11/05 05:31:34;;;;;;;1.27;0.60;;;;;;;;;;4983227;28;20504;-81
2021/11/05 05:34:01;;;;;;;2.05;0.50;;;;;;;;;;4989828;28;20131;-82
2021/11/05 05:36:27;;;;;;;1.73;0.80;;;;;;;;;;5008487;28;20056;-80
2021/11/05 05:38:54;;;;;;;1.17;0.60;;;;;;;;;;4988754;28;20073;-80
2021/11/05 05:41:20;;;;;;;1.70;0.70;;;;;;;;;;5004766;28;20054;-82
2021/11/05 05:43:46;;;;;;;1.92;0.85;;;;;;;;;;4968344;28;20066;-81
2021/11/05 05:46:13;;;;;;;1.60;0.60;;;;;;;;;;4975533;28;20062;-80
2021/11/05 05:48:39;;;;;;;1.45;0.63;;;;;;;;;;4970367;28;20069;-80
2021/11/05 05:51:06;;;;;;;1.90;0.80;;;;;;;;;;4992966;28;20069;-80
2021/11/05 05:53:32;;;;;;;1.05;0.77;;;;;;;;;;4981511;28;20527;-79
2021/11/05 05:55:59;;;;;;;1.30;0.50;;;;;;;;;;5001203;28;20894;-80
2021/11/05 05:58:25;;;;;;;0.93;0.57;;;;;;;;;;5005129;28;20053;-79
2021/11/05 06:00:52;;;;;;;0.88;0.68;;;;;;;;;;4977479;28;20065;-80
2021/11/05 06:03:18;;;;;;;1.67;0.55;;;;;;;;;;5004196;28;20493;-79
2021/11/05 06:05:45;;;;;;;1.15;0.70;;;;;;;;;;4963551;28;20099;-81
2021/11/05 06:08:11;;;;;;;1.30;0.77;;;;;;;;;;5004888;28;20132;-85
2021/11/05 06:10:38;;;;;;;0.80;0.57;;;;;;;;;;4973541;28;20073;-79
2021/11/05 06:13:05;;;;;;;1.13;0.50;;;;;;;;;;5004661;28;20054;-80
2021/11/05 06:15:31;;;;;;;1.48;0.80;;;;;;;;;;5006358;28;20062;-80
2021/11/05 06:17:58;;;;;;;0.73;0.50;;;;;;;;;;4968268;28;20050;-83
2021/11/05 06:20:24;;;;;;;1.27;0.63;;;;;;;;;;4990303;28;20084;-82
2021/11/05 06:22:50;;;;;;;1.55;0.77;;;;;;;;;;4987621;28;20095;-83
2021/11/05 06:25:17;;;;;;;1.17;0.73;;;;;;;;;;4968095;28;20026;-83
2021/11/05 06:27:44;;;;;;;1.27;0.70;;;;;;;;;;4980855;28;20049;-83
2021/11/05 06:30:12;;;;;;;1.65;0.60;;;;;;;;;;4984874;28;20065;-83
2021/11/05 06:32:38;;;;;;;0.95;0.70;;;;;;;;;;4988182;28;20081;-84
2021/11/05 06:35:06;;;;;;;1.33;0.70;;;;;;;;;;4987106;28;20053;-84
2021/11/05 06:37:32;;;;;;;0.80;0.70;;;;;;;;;;4987833;28;20061;-83
2021/11/05 06:39:59;;;;;;;1.23;0.60;;;;;;;;;;5003267;28;20350;-85
2021/11/05 06:42:26;;;;;;;2.13;0.85;;;;;;;;;;4980290;28;20120;-84
2021/11/05 06:44:53;;;;;;;0.57;0.50;;;;;;;;;;4959465;28;20050;-85
2021/11/05 06:47:20;;;;;;;1.27;0.50;;;;;;;;;;4969533;28;20055;-84
2021/11/05 06:49:46;;;;;;;1.13;0.70;;;;;;;;;;4953532;28;20034;-82
2021/11/05 06:52:13;;;;;;;0.88;0.55;;;;;;;;;;4967396;28;20042;-82
2021/11/05 06:54:39;;;;;;;1.35;0.55;;;;;;;;;;4966811;28;20055;-83
2021/11/05 06:57:07;;;;;;;1.15;0.70;;;;;;;;;;4953056;28;20653;-83
2021/11/05 06:59:34;;;;;;;0.80;0.47;;;;;;;;;;4963563;28;20050;-83
2021/11/05 07:02:01;;;;;;;1.77;0.75;;;;;;;;;;4964486;28;20214;-83
2021/11/05 07:04:28;;;;;;;1.83;0.82;;;;;;;;;;4971469;28;20070;-84
2021/11/05 07:06:56;;;;;;;1.08;0.70;;;;;;;;;;4945591;28;20081;-84
2021/11/05 07:09:22;;;;;;;0.77;0.40;;;;;;;;;;4968624;28;20059;-82
2021/11/05 07:11:49;;;;;;;1.17;0.60;;;;;;;;;;4962381;28;21422;-82
2021/11/05 07:14:16;;;;;;;1.48;0.60;;;;;;;;;;4948375;28;20058;-82
2021/11/05 07:16:42;;;;;;;1.08;0.60;;;;;;;;;;4935637;28;20034;-83
2021/11/05 07:19:09;;;;;;;0.60;0.40;;;;;;;;;;4967342;28;20054;-82
2021/11/05 07:21:36;;;;;;;1.35;0.60;;;;;;;;;;4965711;28;20055;-82
2021/11/05 07:24:04;;;;;;;1.23;0.60;;;;;;;;;;4964790;28;20070;-84
2021/11/05 07:26:37;;;;;;;1.02;0.60;;;;;;;;;;4956575;28;20490;-82
2021/11/05 07:29:05;;;;;;;1.00;0.60;;;;;;;;;;4973906;28;20318;-83
2021/11/05 07:31:32;;;;;;;1.13;0.60;;;;;;;;;;4957846;28;20447;-82
2021/11/05 07:33:59;;;;;;;1.00;0.70;;;;;;;;;;4973045;28;20552;-81
2021/11/05 07:36:25;;;;;;;2.25;0.70;;;;;;;;;;4963981;28;20490;-82
2021/11/05 07:38:52;;;;;;;0.50;0.47;;;;;;;;;;4939821;28;20200;-82
2021/11/05 07:41:19;;;;;;;0.80;0.65;;;;;;;;;;4949066;28;20038;-82
2021/11/05 07:43:47;;;;;;;0.98;0.50;;;;;;;;;;4940648;28;20113;-83
2021/11/05 07:46:14;;;;;;;1.50;0.50;;;;;;;;;;4970887;28;20061;-82
2021/11/05 07:48:40;;;;;;;1.17;0.60;;;;;;;;;;4987332;28;20088;-82
2021/11/05 07:51:07;;;;;;;1.35;0.50;;;;;;;;;;4976018;28;20589;-86
2021/11/05 07:53:33;;;;;;;0.95;0.50;;;;;;;;;;4986673;28;20516;-85
2021/11/05 07:55:59;;;;;;;0.82;0.70;;;;;;;;;;5003581;28;20286;-86
2021/11/05 07:58:26;;;;;;;1.17;0.40;;;;;;;;;;4991626;28;20065;-87
2021/11/05 08:00:53;;;;;;;1.10;0.60;;;;;;;;;;4984181;28;22143;-86
2021/11/05 08:03:21;;;;;;;1.30;0.60;;;;;;;;;;4975758;28;20048;-88
2021/11/05 08:05:48;;;;;;;1.02;0.63;;;;;;;;;;4964330;28;20030;-86
2021/11/05 08:08:15;;;;;;;1.65;0.50;;;;;;;;;;5006937;28;20061;-87
2021/11/05 08:10:41;;;;;;;1.33;0.98;;;;;;;;;;4983912;28;20478;-87
2021/11/05 08:13:08;;;;;;;1.67;0.50;;;;;;;;;;4996618;28;20037;-88
2021/11/05 08:15:35;;;;;;;1.52;0.50;;;;;;;;;;4980070;28;20054;-86
2021/11/05 08:18:02;;;;;;;1.05;0.60;;;;;;;;;;4966129;28;20062;-87
2021/11/05 08:20:28;;;;;;;0.88;0.50;;;;;;;;;;4987790;28;20119;-88
2021/11/05 08:22:55;;;;;;;1.42;0.40;;;;;;;;;;4959116;28;20074;-90
2021/11/05 08:25:21;;;;;;;0.65;0.40;;;;;;;;;;4991483;28;20045;-87
2021/11/05 08:27:48;;;;;;;1.15;0.50;;;;;;;;;;4988756;28;20035;-85
2021/11/05 08:30:18;;;;;;;0.43;0.40;;;;;;;;;;4988915;28;20054;-87
2021/11/05 08:32:45;;;;;;;1.80;0.70;;;;;;;;;;4966098;28;20085;-89
2021/11/05 08:35:11;;;;;;;0.60;0.40;;;;;;;;;;4974646;28;20398;-88
2021/11/05 08:37:38;;;;;;;0.80;0.40;;;;;;;;;;4973823;28;20050;-88
2021/11/05 08:40:05;;;;;;;1.00;0.50;;;;;;;;;;4990276;28;20049;-88
2021/11/05 08:42:32;;;;;;;1.45;0.52;;;;;;;;;;5003279;28;20034;-93
2021/11/05 08:44:59;;;;;;;1.48;0.43;;;;;;;;;;4991923;28;20944;-92
2021/11/05 08:47:25;;;;;;;2.78;0.60;;;;;;;;;;4996266;28;20456;-91
2021/11/05 08:49:54;;;;;;;1.02;0.65;;;;;;;;;;5011357;28;20030;-92
2021/11/05 08:52:21;;;;;;;2.28;0.68;;;;;;;;;;4987940;28;20034;-89
2021/11/05 08:54:48;;;;;;;1.40;0.45;;;;;;;;;;4996778;28;20088;-91
2021/11/05 08:57:14;;;;;;;0.77;0.50;;;;;;;;;;4984235;28;20084;-91
2021/11/05 08:59:41;;;;;;;0.80;0.52;;;;;;;;;;4994150;28;20064;-91
2021/11/05 09:02:07;;;;;;;1.00;0.40;;;;;;;;;;4978655;28;20092;-91
2021/11/05 09:04:33;;;;;;;1.67;0.50;;;;;;;;;;4976592;28;20431;-93
2021/11/05 09:07:00;;;;;;;1.67;0.60;;;;;;;;;;4991605;28;20922;-92
2021/11/05 09:09:26;;;;;;;0.65;0.30;;;;;;;;;;4993301;28;20053;-91
2021/11/05 09:11:53;;;;;;;0.95;0.60;;;;;;;;;;4975775;28;20039;-90
2021/11/05 09:14:22;;;;;;;0.88;0.50;;;;;;;;;;5012033;28;20049;-90
2021/11/05 09:16:48;;;;;;;1.00;0.60;;;;;;;;;;4995070;28;20034;-91
2021/11/05 09:19:14;;;;;;;0.30;0.30;;;;;;;;;;4987395;28;20046;-91
2021/11/05 09:21:41;;;;;;;2.20;0.60;;;;;;;;;;5009116;28;20038;-92
2021/11/05 09:24:07;;;;;;;2.05;0.55;;;;;;;;;;5010148;28;20089;-91
2021/11/05 09:26:34;;;;;;;1.40;0.40;;;;;;;;;;4977073;28;20368;-91
2021/11/05 09:29:00;;;;;;;0.52;0.40;;;;;;;;;;4977034;28;20556;-91
2021/11/05 09:31:27;;;;;;;1.48;0.30;;;;;;;;;;5015900;28;20038;-90
2021/11/05 09:33:53;;;;;;;5.63;0.50;;;;;;;;;;5011708;28;20449;-91
2021/11/05 09:36:20;;;;;;;1.45;0.50;;;;;;;;;;4993212;28;20034;-91
2021/11/05 09:38:46;;;;;;;0.47;0.40;;;;;;;;;;4989616;28;20088;-89
2021/11/05 09:41:13;;;;;;;0.40;0.20;;;;;;;;;;5015284;28;20101;-88
2021/11/05 09:43:40;;;;;;;1.92;0.50;;;;;;;;;;4987425;28;20058;-90
2021/11/05 09:46:06;;;;;;;0.75;0.40;;;;;;;;;;5010440;28;20061;-90
2021/11/05 09:48:37;;;;;;;1.38;0.40;;;;;;;;;;4989187;28;20053;-89
2021/11/05 09:51:04;;;;;;;2.70;0.50;;;;;;;;;;4992069;28;20064;-89
2021/11/05 09:53:35;;;;;;;0.90;0.32;;;;;;;;;;4970697;28;20544;-91
2021/11/05 09:56:02;;;;;;;1.45;0.47;;;;;;;;;;4976635;28;20038;-90
2021/11/05 09:58:29;;;;;;;2.28;0.43;;;;;;;;;;4993401;28;20076;-91
2021/11/05 10:00:55;;;;;;;1.30;0.50;;;;;;;;;;4991262;28;20088;-89
2021/11/05 10:03:22;;;;;;;1.00;0.35;;;;;;;;;;4992358;28;20038;-89
2021/11/05 10:05:53;;;;;;;1.83;0.50;;;;;;;;;;5012971;28;20026;-94
2021/11/05 10:08:19;;;;;;;;;;;;;;;;;;5006485;28;20029;-95
2021/11/05 10:10:46;;;;;;;1.05;0.55;;;;;;;;;;4989633;28;19936;-95
2021/11/05 10:13:13;;;;;;;1.33;0.50;;;;;;;;;;4992345;28;20478;-93
2021/11/05 10:15:41;;;;;;;1.75;0.30;;;;;;;;;;4985166;28;20049;-94
2021/11/05 10:18:18;;;;;;;1.83;0.40;;;;;;;;;;4975456;28;20038;-93
2021/11/05 10:20:46;;;;;;;0.82;0.40;;;;;;;;;;5013629;28;20048;-95
2021/11/05 10:23:13;;;;;;;0.52;0.30;;;;;;;;;;4995294;28;20050;-93
2021/11/05 10:25:44;;;;;;;2.58;0.50;;;;;;;;;;4998061;28;20038;-90
2021/11/05 10:28:10;;;;;;;1.40;0.50;;;;;;;;;;4971074;28;20108;-90
2021/11/05 10:30:39;;;;;;;1.00;0.30;;;;;;;;;;4977962;28;20030;-91
2021/11/05 10:33:06;;;;;;;0.68;0.38;;;;;;;;;;4971230;28;20033;-89
2021/11/05 10:35:33;;;;;;;1.80;0.30;;;;;;;;;;4995413;28;20022;-90
2021/11/05 10:38:03;;;;;;;0.45;0.30;;;;;;;;;;4993345;28;20041;-92
2021/11/05 10:40:41;;;;;;;1.85;0.32;;;;;;;;;;4991818;28;20053;-90
2021/11/05 10:43:08;;;;;;;1.88;0.50;;;;;;;;;;4998098;28;20414;-92
2021/11/05 10:45:36;;;;;;;1.85;0.40;;;;;;;;;;4978126;28;20046;-91
2021/11/05 10:48:04;;;;;;;2.50;0.57;;;;;;;;;;4983576;28;20709;-94
2021/11/05 10:50:34;;;;;;;1.20;0.60;;;;;;;;;;5002574;28;20045;-91
2021/11/05 10:53:03;;;;;;;2.33;0.70;;;;;;;;;;4999250;28;20397;-91
2021/11/05 10:55:43;;;;;;;0.98;0.40;;;;;;;;;;4994795;28;20034;-92
2021/11/05 10:58:17;;;;;;;0.85;0.35;;;;;;;;;;4985798;28;20580;-92
2021/11/05 11:00:44;;;;;;;1.33;0.40;;;;;;;;;;4999346;28;20035;-92
2021/11/05 11:03:10;;;;;;;0.65;0.35;;;;;;;;;;4987460;28;20096;-91
2021/11/05 11:05:40;;;;;;;0.77;0.43;;;;;;;;;;5003996;28;20033;-90
2021/11/05 11:08:09;;;;;;;0.50;0.40;;;;;;;;;;5025050;28;20026;-92
2021/11/05 11:10:38;;;;;;;1.40;0.50;;;;;;;;;;4984009;28;20058;-85
2021/11/05 11:13:05;;;;;;;2.22;0.60;;;;;;;;;;4994661;28;20034;-94
2021/11/05 11:15:32;;;;;;;0.60;0.35;;;;;;;;;;5003590;28;20117;-91
2021/11/05 11:17:59;;;;;;;0.50;0.30;;;;;;;;;;5010267;28;20057;-91
2021/11/05 11:20:30;;;;;;;0.80;0.38;;;;;;;;;;4994969;28;20030;-91
2021/11/05 11:22:57;;;;;;;0.85;0.30;;;;;;;;;;5004153;28;20031;-92
2021/11/05 11:25:23;;;;;;;1.70;0.40;;;;;;;;;;5001410;28;20037;-90
2021/11/05 11:27:50;;;;;;;1.48;0.40;;;;;;;;;;4993846;28;20038;-92
2021/11/05 11:30:18;;;;;;;0.60;0.30;;;;;;;;;;5027105;28;20037;-91
2021/11/05 11:32:47;;;;;;;0.40;0.30;;;;;;;;;;4993316;28;20045;-91
2021/11/05 11:35:13;;;;;;;0.70;0.30;;;;;;;;;;4985969;28;20030;-90
2021/11/05 11:37:41;;;;;;;1.25;0.50;;;;;;;;;;5005308;28;20026;-90
2021/11/05 11:40:09;;;;;;;0.93;0.30;;;;;;;;;;4998513;28;20038;-93
2021/11/05 11:42:35;;;;;;;0.50;0.40;;;;;;;;;;5006895;28;20034;-84
2021/11/05 11:45:02;;;;;;;0.70;0.40;;;;;;;;;;4978048;28;20065;-91
2021/11/05 11:47:40;;;;;;;0.82;0.30;;;;;;;;;;4986095;28;20096;-88
2021/11/05 11:50:20;;;;;;;0.57;0.30;;;;;;;;;;4993074;28;20088;-89
2021/11/05 11:52:55;;;;;;;0.47;0.30;;;;;;;;;;4974764;28;20050;-90
2021/11/05 11:55:22;;;;;;;0.93;0.63;;;;;;;;;;4980247;28;20038;-90
2021/11/05 11:57:48;;;;;;;0.80;0.40;;;;;;;;;;4974667;28;20121;-90
2021/11/05 12:00:18;;;;;;;1.08;0.40;;;;;;;;;;4981739;28;20037;-89
2021/11/05 12:03:01;;;;;;;0.20;0.20;;;;;;;;;;4997932;28;20053;-90
2021/11/05 12:05:30;;;;;;;0.47;0.28;;;;;;;;;;4998669;28;20080;-88
2021/11/05 12:08:12;;;;;;;1.08;0.30;;;;;;;;;;4976874;28;20034;-89
2021/11/05 12:10:39;;;;;;;0.95;0.40;;;;;;;;;;4996829;28;20095;-90
2021/11/05 12:13:26;;;;;;;0.75;0.20;;;;;;;;;;4981303;28;20519;-91
2021/11/05 12:16:15;;;;;;;0.65;0.30;;;;;;;;;;4952680;28;20458;-89
2021/11/05 12:19:00;;;;;;;0.30;0.20;;;;;;;;;;4994788;28;20034;-92
2021/11/05 12:21:47;;;;;;;0.88;0.30;;;;;;;;;;4993683;28;20148;-91
2021/11/05 12:27:00;;;;;;;0.40;0.30;;;;;;;;;;4990550;28;20030;-87
2021/11/05 12:29:33;;;;;;;1.23;0.40;;;;;;;;;;4977446;28;20181;-89
2021/11/05 12:31:59;;;;;;;0.77;0.40;;;;;;;;;;4975115;28;20034;-91
2021/11/05 12:34:29;;;;;;;0.47;0.30;;;;;;;;;;4978707;28;20034;-89
2021/11/05 12:36:57;;;;;;;1.08;0.35;;;;;;;;;;4983998;28;20107;-90
2021/11/05 12:39:30;;;;;;;0.80;0.38;;;;;;;;;;4987402;28;20049;-89
2021/11/05 12:41:57;;;;;;;0.80;0.30;;;;;;;;;;5006931;28;20045;-88
2021/11/05 12:44:24;;;;;;;1.60;0.30;;;;;;;;;;4970685;28;20405;-90
2021/11/05 12:46:50;;;;;;;1.67;0.45;;;;;;;;;;4974340;28;20038;-90
2021/11/05 12:49:18;;;;;;;1.13;0.40;;;;;;;;;;4981554;28;20551;-92
2021/11/05 12:51:46;;;;;;;0.70;0.45;;;;;;;;;;4983911;28;20037;-88
2021/11/05 12:54:14;;;;;;;0.63;0.30;;;;;;;;;;4986559;28;20101;-90
2021/11/05 12:56:41;;;;;;;1.65;0.40;;;;;;;;;;4985045;28;20026;-89
2021/11/05 12:59:09;;;;;;;1.77;0.40;;;;;;;;;;4995155;28;20049;-89
2021/11/05 13:01:36;;;;;;;1.52;0.30;;;;;;;;;;4971789;28;20096;-90
2021/11/05 13:04:07;;;;;;;1.00;0.20;;;;;;;;;;4970866;28;20042;-94
2021/11/05 13:06:37;;;;;;;0.63;0.30;;;;;;;;;;4977927;28;20085;-85
2021/11/05 13:09:18;;;;;;;2.38;0.47;;;;;;;;;;4997310;28;20026;-82
2021/11/05 13:11:56;;;;;;;1.00;0.40;;;;;;;;;;4995179;28;20044;-81
2021/11/05 13:14:58;;;;;;;0.82;0.40;;;;;;;;;;4964441;28;20034;-82
2021/11/05 13:17:29;;;;;;;0.43;0.30;;;;;;;;;;4904011;29;20072;-82
2021/11/05 13:19:57;;;;;;;1.45;0.50;;;;;;;;;;4986533;28;20099;-82
2021/11/05 13:22:25;;;;;;;2.10;0.50;;;;;;;;;;4978843;28;20058;-81
2021/11/05 13:24:52;;;;;;;1.42;0.63;;;;;;;;;;4977462;28;20069;-81
2021/11/05 13:27:28;;;;;;;1.80;0.40;;;;;;;;;;5060070;27;20134;-80
2021/11/05 13:29:55;;;;;;;0.82;0.30;;;;;;;;;;5004296;28;20073;-81
2021/11/05 13:32:22;;;;;;;1.70;0.30;;;;;;;;;;5013408;28;20057;-81
2021/11/05 13:34:49;;;;;;;1.05;0.45;;;;;;;;;;5017061;28;20111;-81
2021/11/05 13:37:16;;;;;;;0.50;0.30;;;;;;;;;;5021252;28;20099;-81
2021/11/05 13:39:43;;;;;;;1.45;0.45;;;;;;;;;;4999729;28;20061;-82
2021/11/05 13:42:11;;;;;;;1.40;0.32;;;;;;;;;;4978808;28;20050;-82
2021/11/05 13:44:39;;;;;;;1.75;0.30;;;;;;;;;;4982191;28;20037;-78
2021/11/05 13:47:16;;;;;;;0.98;0.40;;;;;;;;;;5018978;28;20446;-78
2021/11/05 13:49:42;;;;;;;1.38;0.40;;;;;;;;;;4996403;28;20176;-78
2021/11/05 13:52:09;;;;;;;1.40;0.40;;;;;;;;;;5005607;28;20069;-78
2021/11/05 13:54:46;;;;;;;0.90;0.30;;;;;;;;;;5008030;28;20053;-77
2021/11/05 13:57:16;;;;;;;1.75;0.40;;;;;;;;;;5017870;28;20700;-77
2021/11/05 13:59:43;;;;;;;1.48;0.43;;;;;;;;;;5024691;28;20065;-78
2021/11/05 14:02:10;;;;;;;0.95;0.47;;;;;;;;;;5021531;28;20605;-78
2021/11/05 14:04:36;;;;;;;0.47;0.30;;;;;;;;;;5021749;28;20053;-77
2021/11/05 14:07:09;;;;;;;2.67;0.85;;;;;;;;;;5018270;28;20543;-76
2021/11/05 14:09:35;;;;;;;2.03;0.38;;;;;;;;;;5018304;28;20038;-82
2021/11/05 14:12:03;;;;;;;0.70;0.30;;;;;;;;;;5011780;28;20496;-83
2021/11/05 14:14:34;;;;;;;3.45;0.50;;;;;;;;;;4996238;28;20061;-82
2021/11/05 14:17:02;;;;;;;0.98;0.30;;;;;;;;;;5007346;28;20527;-82
2021/11/05 14:19:34;;;;;;;0.65;0.40;;;;;;;;;;5008032;28;20033;-84
2021/11/05 14:22:05;;;;;;;1.70;0.50;;;;;;;;;;5000229;28;20034;-90
2021/11/05 14:24:32;;;;;;;;;;;;;;;;;;5021702;28;20049;-93
2021/11/05 14:27:23;;;;;;;1.48;0.40;;;;;;;;;;5002840;28;19921;-95
2021/11/05 14:29:51;;;;;;;2.13;0.38;;;;;;;;;;5016581;28;20068;-93
2021/11/05 14:32:38;;;;;;;3.17;0.80;;;;;;;;;;5029606;28;20125;-94
2021/11/05 14:35:15;;;;;;;1.05;0.22;;;;;;;;;;5004640;28;21059;-79
2021/11/05 14:37:53;;;;;;;4.03;0.77;;;;;;;;;;5005795;28;20038;-79
2021/11/05 14:40:21;;;;;;;1.77;0.55;;;;;;;;;;5000042;28;20402;-79
2021/11/05 14:42:57;;;;;;;1.70;0.63;;;;;;;;;;4981060;28;20033;-79
2021/11/05 14:45:24;;;;;;;2.60;0.45;;;;;;;;;;4993460;28;20038;-81
2021/11/05 14:47:52;;;;;;;5.15;0.70;;;;;;;;;;4996444;28;20041;-80
2021/11/05 14:50:20;;;;;;;5.28;0.50;;;;;;;;;;5016298;28;20586;-79